createdAt,value
2022-12-23T00:00:10.588Z,-27.04
2022-12-23T00:03:17.574Z,-26.85
2022-12-23T00:06:22.445Z,-26.70
2022-12-23T00:09:25.520Z,-26.82
2022-12-23T00:12:46.981Z,-26.87
2022-12-23T00:15:50.660Z,-26.79
2022-12-23T00:18:55.151Z,-26.96
2022-12-23T00:21:59.089Z,-27.42
2022-12-23T00:25:02.805Z,-27.68
2022-12-23T00:28:06.017Z,-27.77
2022-12-23T00:31:11.532Z,-27.86
2022-12-23T00:34:15.737Z,-27.85
2022-12-23T00:37:19.497Z,-27.79
2022-12-23T00:40:42.001Z,-27.78
2022-12-23T00:43:45.897Z,-27.85
2022-12-23T00:47:08.382Z,-27.77
2022-12-23T00:50:12.373Z,-27.66
2022-12-23T00:53:16.415Z,-27.48
2022-12-23T00:56:19.405Z,-27.40
2022-12-23T00:59:23.502Z,-27.46
2022-12-23T01:02:45.729Z,-27.59
2022-12-23T01:05:49.850Z,-27.59
2022-12-23T01:08:52.741Z,-27.47
2022-12-23T01:11:56.189Z,-27.45
2022-12-23T01:15:00.123Z,-27.50
2022-12-23T01:18:03.299Z,-27.42
2022-12-23T01:21:08.295Z,-27.28
2022-12-23T01:24:29.931Z,-27.05
2022-12-23T01:27:33.101Z,-26.96
2022-12-23T01:30:39.118Z,-26.90
2022-12-23T01:33:42.696Z,-26.78
2022-12-23T01:36:46.642Z,-26.68
2022-12-23T01:39:50.326Z,-26.47
2022-12-23T01:42:54.219Z,-26.24
2022-12-23T01:45:57.766Z,-26.02
2022-12-23T01:49:01.899Z,-26.12
2022-12-23T01:52:24.520Z,-25.88
2022-12-23T01:55:31.668Z,-25.70
2022-12-23T01:58:55.913Z,-25.30
2022-12-23T02:02:20.213Z,-25.15
2022-12-23T02:05:25.206Z,-24.98
2022-12-23T02:08:49.113Z,-25.14
2022-12-23T02:12:29.059Z,-24.85
2022-12-23T02:16:01.801Z,-24.86
2022-12-23T02:19:12.736Z,-24.57
2022-12-23T02:22:30.593Z,-24.25
2022-12-23T02:25:37.236Z,-24.19
2022-12-23T02:29:00.601Z,-23.95
2022-12-23T02:32:22.359Z,-23.88
2022-12-23T02:35:49.650Z,-23.71
2022-12-23T02:39:05.760Z,-23.58
2022-12-23T02:42:15.550Z,-23.60
2022-12-23T02:45:23.972Z,-23.37
2022-12-23T02:48:36.345Z,-23.39
2022-12-23T02:51:45.697Z,-23.45
2022-12-23T02:54:57.267Z,-23.42
2022-12-23T02:58:06.350Z,-23.29
2022-12-23T03:01:12.325Z,-23.23
2022-12-23T03:04:16.558Z,-23.31
2022-12-23T03:07:31.029Z,-23.25
2022-12-23T03:11:03.700Z,-23.15
2022-12-23T03:14:25.989Z,-23.14
2022-12-23T03:18:00.180Z,-22.71
2022-12-23T03:21:13.899Z,-22.61
2022-12-23T03:24:29.561Z,-22.69
2022-12-23T03:28:17.468Z,-22.77
2022-12-23T03:31:27.061Z,-22.80
2022-12-23T03:34:36.508Z,-22.51
2022-12-23T03:37:44.720Z,-22.50
2022-12-23T03:40:56.862Z,-22.33
2022-12-23T03:44:23.146Z,-22.54
2022-12-23T03:47:32.055Z,-22.55
2022-12-23T03:50:36.778Z,-22.17
2022-12-23T03:54:02.441Z,-21.85
2022-12-23T03:57:08.629Z,-21.85
2022-12-23T04:00:34.758Z,-21.82
2022-12-23T04:03:48.356Z,-21.71
2022-12-23T04:07:10.730Z,-21.44
2022-12-23T04:10:15.932Z,-21.50
2022-12-23T04:13:19.743Z,-21.76
2022-12-23T04:16:24.379Z,-21.52
2022-12-23T04:19:28.609Z,-21.42
2022-12-23T04:22:32.461Z,-21.42
2022-12-23T04:25:36.303Z,-21.23
2022-12-23T04:28:40.202Z,-20.98
2022-12-23T04:31:44.004Z,-21.11
2022-12-23T04:35:06.977Z,-21.16
2022-12-23T04:38:10.654Z,-21.43
2022-12-23T04:41:32.984Z,-21.40
2022-12-23T04:44:35.954Z,-21.39
2022-12-23T04:47:39.435Z,-21.43
2022-12-23T04:50:42.671Z,-21.38
2022-12-23T04:53:45.954Z,-21.23
2022-12-23T04:56:48.802Z,-21.17
2022-12-23T04:59:52.525Z,-21.32
2022-12-23T05:02:56.287Z,-21.38
2022-12-23T05:06:00.551Z,-21.54
2022-12-23T05:09:05.178Z,-21.43
2022-12-23T05:12:09.092Z,-21.12
2022-12-23T05:15:12.629Z,-21.19
2022-12-23T05:18:34.367Z,-21.28
2022-12-23T05:21:37.281Z,-21.26
2022-12-23T05:24:40.843Z,-21.14
2022-12-23T05:27:44.112Z,-21.09
2022-12-23T05:30:47.732Z,-21.08
2022-12-23T05:33:51.503Z,-20.99
2022-12-23T05:36:54.972Z,-20.84
2022-12-23T05:39:58.767Z,-20.81
2022-12-23T05:43:02.874Z,-20.78
2022-12-23T05:46:06.079Z,-20.67
2022-12-23T05:49:10.345Z,-20.60
2022-12-23T05:52:14.097Z,-20.30
2022-12-23T05:55:18.314Z,-20.26
2022-12-23T05:58:21.167Z,-20.34
2022-12-23T06:01:24.585Z,-20.37
2022-12-23T06:04:27.620Z,-20.33
2022-12-23T06:07:30.582Z,-20.29
2022-12-23T06:10:34.192Z,-20.06
2022-12-23T06:13:37.929Z,-20.21
2022-12-23T06:16:41.137Z,-20.24
2022-12-23T06:20:04.280Z,-20.08
2022-12-23T06:23:26.512Z,-20.21
2022-12-23T06:26:30.202Z,-20.14
2022-12-23T06:29:33.775Z,-20.24
2022-12-23T06:33:13.891Z,-20.20
2022-12-23T06:36:17.493Z,-19.96
2022-12-23T06:39:39.777Z,-20.02
2022-12-23T06:42:43.422Z,-20.06
2022-12-23T06:45:49.262Z,-20.06
2022-12-23T06:48:52.971Z,-20.14
2022-12-23T06:51:57.294Z,-20.08
2022-12-23T06:55:01.792Z,-19.75
2022-12-23T06:58:06.545Z,-19.54
2022-12-23T07:01:10.507Z,-19.44
2022-12-23T07:04:33.129Z,-19.24
2022-12-23T07:07:36.623Z,-19.22
2022-12-23T07:10:40.716Z,-19.31
2022-12-23T07:13:43.816Z,-19.21
2022-12-23T07:16:47.272Z,-19.22
2022-12-23T07:19:50.326Z,-19.28
2022-12-23T07:22:56.132Z,-19.32
2022-12-23T07:25:59.246Z,-19.43
2022-12-23T07:29:03.083Z,-19.42
2022-12-23T07:32:07.256Z,-19.49
2022-12-23T07:35:11.083Z,-19.52
2022-12-23T07:38:32.963Z,-19.56
2022-12-23T07:42:16.522Z,-19.59
2022-12-23T07:45:18.121Z,-19.77
2022-12-23T07:48:21.165Z,-19.87
2022-12-23T07:51:24.675Z,-19.95
2022-12-23T07:54:27.800Z,-19.92
2022-12-23T07:57:38.166Z,-19.95
2022-12-23T08:00:42.446Z,-19.99
2022-12-23T08:04:03.994Z,-20.01
2022-12-23T08:07:06.904Z,-20.12
2022-12-23T08:10:10.704Z,-20.26
2022-12-23T08:13:13.668Z,-20.33
2022-12-23T08:16:17.298Z,-20.29
2022-12-23T08:19:20.536Z,-20.23
2022-12-23T08:22:43.297Z,-20.31
2022-12-23T08:25:46.904Z,-20.42
2022-12-23T08:28:54.413Z,-20.43
2022-12-23T08:31:58.060Z,-20.53
2022-12-23T08:35:46.269Z,-20.53
2022-12-23T08:39:07.819Z,-20.59
2022-12-23T08:42:11.169Z,-20.57
2022-12-23T08:45:14.207Z,-20.60
2022-12-23T08:48:17.456Z,-20.67
2022-12-23T08:51:25.380Z,-20.66
2022-12-23T08:54:29.900Z,-20.59
2022-12-23T08:57:33.134Z,-20.61
2022-12-23T09:00:37.445Z,-20.71
2022-12-23T09:03:41.075Z,-20.69
2022-12-23T09:06:47.791Z,-20.65
2022-12-23T09:09:53.919Z,-20.71
2022-12-23T09:12:58.344Z,-20.89
2022-12-23T09:16:01.363Z,-20.83
2022-12-23T09:19:06.052Z,-20.77
2022-12-23T09:22:10.627Z,-20.89
2022-12-23T09:25:15.722Z,-20.98
2022-12-23T09:28:19.247Z,-20.99
2022-12-23T09:31:23.880Z,-21.13
2022-12-23T09:34:27.389Z,-21.32
2022-12-23T09:37:31.617Z,-21.32
2022-12-23T09:40:37.711Z,-21.50
2022-12-23T09:43:50.074Z,-21.31
2022-12-23T09:46:57.789Z,-21.38
2022-12-23T09:50:07.203Z,-21.47
2022-12-23T09:53:41.443Z,-21.49
2022-12-23T09:56:59.670Z,-21.45
2022-12-23T10:00:05.285Z,-21.37
2022-12-23T10:03:14.620Z,-21.15
2022-12-23T10:06:26.183Z,-21.26
2022-12-23T10:09:32.883Z,-21.23
2022-12-23T10:12:41.611Z,-21.39
2022-12-23T10:16:06.059Z,-21.35
2022-12-23T10:19:13.554Z,-21.35
2022-12-23T10:22:43.052Z,-21.36
2022-12-23T10:25:56.271Z,-21.30
2022-12-23T10:29:20.001Z,-21.32
2022-12-23T10:32:35.041Z,-21.46
2022-12-23T10:36:03.108Z,-21.52
2022-12-23T10:39:21.723Z,-21.65
2022-12-23T10:42:43.824Z,-21.73
2022-12-23T10:46:17.364Z,-21.99
2022-12-23T10:49:55.924Z,-22.05
2022-12-23T10:53:03.929Z,-21.93
2022-12-23T10:56:09.366Z,-21.70
2022-12-23T10:59:18.453Z,-21.56
2022-12-23T11:03:00.432Z,-21.65
2022-12-23T11:06:05.437Z,-21.81
2022-12-23T11:09:17.737Z,-21.86
2022-12-23T11:12:26.145Z,-21.89
2022-12-23T11:15:42.350Z,-22.19
2022-12-23T11:18:59.989Z,-22.24
2022-12-23T11:22:04.195Z,-22.23
2022-12-23T11:25:41.511Z,-22.12
2022-12-23T11:28:58.525Z,-22.07
2022-12-23T11:32:03.837Z,-22.07
2022-12-23T11:35:33.776Z,-22.06
2022-12-23T11:38:48.310Z,-21.98
2022-12-23T11:41:55.577Z,-22.02
2022-12-23T11:45:03.360Z,-22.03
2022-12-23T11:48:27.065Z,-22.09
2022-12-23T11:51:30.938Z,-22.15
2022-12-23T11:55:04.356Z,-22.11
2022-12-23T11:58:19.373Z,-21.96
2022-12-23T12:01:25.945Z,-22.04
2022-12-23T12:04:33.123Z,-22.13
2022-12-23T12:07:37.377Z,-22.14
2022-12-23T12:10:42.549Z,-22.14
2022-12-23T12:14:14.332Z,-22.02
2022-12-23T12:17:26.757Z,-21.97
2022-12-23T12:20:37.633Z,-21.95
2022-12-23T12:23:48.964Z,-21.93
2022-12-23T12:26:58.000Z,-21.86
2022-12-23T12:30:08.691Z,-21.89
2022-12-23T12:33:57.353Z,-22.04
2022-12-23T12:37:03.214Z,-21.96
2022-12-23T12:40:44.416Z,-21.88
2022-12-23T12:44:21.171Z,-22.05
2022-12-23T12:47:57.029Z,-22.21
2022-12-23T12:51:14.872Z,-22.66
2022-12-23T12:55:05.020Z,-22.89
2022-12-23T12:58:19.212Z,-22.97
2022-12-23T13:01:50.852Z,-23.05
2022-12-23T13:04:57.533Z,-23.07
2022-12-23T13:08:22.815Z,-22.85
2022-12-23T13:11:35.195Z,-22.79
2022-12-23T13:14:47.065Z,-22.59
2022-12-23T13:18:28.569Z,-22.65
2022-12-23T13:21:54.503Z,-23.13
2022-12-23T13:25:19.287Z,-23.30
2022-12-23T13:28:49.243Z,-23.11
2022-12-23T13:32:15.542Z,-22.89
2022-12-23T13:35:42.707Z,-22.97
2022-12-23T13:39:05.119Z,-23.16
2022-12-23T13:42:29.979Z,-23.12
2022-12-23T13:45:53.515Z,-22.90
2022-12-23T13:49:12.042Z,-22.92
2022-12-23T13:52:50.782Z,-22.76
2022-12-23T13:56:20.959Z,-22.62
2022-12-23T13:59:24.116Z,-22.59
2022-12-23T14:02:41.867Z,-22.79
2022-12-23T14:05:48.311Z,-22.88
2022-12-23T14:08:53.665Z,-23.01
2022-12-23T14:12:02.619Z,-23.06
2022-12-23T14:15:19.589Z,-22.79
2022-12-23T14:18:31.740Z,-22.68
2022-12-23T14:21:44.698Z,-22.92
2022-12-23T14:25:27.876Z,-22.95
2022-12-23T14:28:57.465Z,-23.01
2022-12-23T14:32:02.163Z,-23.08
2022-12-23T14:35:23.420Z,-23.02
2022-12-23T14:38:32.026Z,-23.00
2022-12-23T14:41:40.735Z,-23.02
2022-12-23T14:45:04.712Z,-23.10
2022-12-23T14:48:35.601Z,-23.16
2022-12-23T14:51:41.008Z,-23.22
2022-12-23T14:55:06.088Z,-23.25
2022-12-23T14:58:18.607Z,-23.11
2022-12-23T15:01:42.390Z,-23.09
2022-12-23T15:04:54.073Z,-23.21
2022-12-23T15:08:15.335Z,-23.33
2022-12-23T15:11:25.292Z,-23.23
2022-12-23T15:14:39.472Z,-23.18
2022-12-23T15:18:02.928Z,-23.28
2022-12-23T15:21:14.020Z,-23.25
2022-12-23T15:24:20.776Z,-23.24
2022-12-23T15:27:27.796Z,-23.19
2022-12-23T15:30:37.918Z,-23.03
2022-12-23T15:37:17.573Z,-22.97
2022-12-23T15:40:29.808Z,-23.04
2022-12-23T15:43:33.586Z,-23.40
2022-12-23T15:46:41.133Z,-23.78
2022-12-23T15:49:45.771Z,-23.92
2022-12-23T15:52:51.158Z,-24.07
2022-12-23T15:55:55.143Z,-24.16
2022-12-23T15:58:59.772Z,-24.26
2022-12-23T16:05:51.772Z,-23.98
2022-12-23T16:08:58.455Z,-23.87
2022-12-23T16:12:18.900Z,-23.88
2022-12-23T16:15:31.107Z,-23.71
2022-12-23T16:18:47.172Z,-23.72
2022-12-23T16:21:51.785Z,-23.78
2022-12-23T16:25:20.866Z,-23.75
2022-12-23T16:28:28.833Z,-23.66
2022-12-23T16:31:32.873Z,-23.68
2022-12-23T16:34:36.974Z,-23.55
2022-12-23T16:37:45.916Z,-23.47
2022-12-23T16:40:55.618Z,-23.56
2022-12-23T16:44:00.205Z,-23.64
2022-12-23T16:47:09.287Z,-23.76
2022-12-23T16:50:15.635Z,-23.66
2022-12-23T16:53:19.344Z,-23.64
2022-12-23T16:56:42.483Z,-23.65
2022-12-23T16:59:47.704Z,-23.75
2022-12-23T17:02:52.384Z,-23.74
2022-12-23T17:05:56.049Z,-23.73
2022-12-23T17:08:59.439Z,-23.71
2022-12-23T17:12:02.555Z,-23.61
2022-12-23T17:15:07.714Z,-23.64
2022-12-23T17:18:29.327Z,-23.63
2022-12-23T17:21:37.738Z,-23.61
2022-12-23T17:24:40.647Z,-23.56
2022-12-23T17:28:02.148Z,-23.72
2022-12-23T17:31:12.000Z,-23.95
2022-12-23T17:34:20.248Z,-24.26
2022-12-23T17:37:23.476Z,-24.34
2022-12-23T17:40:26.696Z,-24.29
2022-12-23T17:43:29.843Z,-24.47
2022-12-23T17:46:32.959Z,-24.41
2022-12-23T17:49:36.164Z,-24.43
2022-12-23T17:52:39.462Z,-24.42
2022-12-23T17:55:42.699Z,-24.33
2022-12-23T17:58:47.649Z,-24.11
2022-12-23T18:02:08.964Z,-23.87
2022-12-23T18:05:32.251Z,-23.76
2022-12-23T18:08:36.139Z,-23.79
2022-12-23T18:11:45.575Z,-24.15
2022-12-23T18:14:49.258Z,-24.23
2022-12-23T18:17:53.551Z,-24.00
2022-12-23T18:20:58.335Z,-23.92
2022-12-23T18:24:01.807Z,-23.96
2022-12-23T18:27:14.250Z,-23.90
2022-12-23T18:30:18.498Z,-23.92
2022-12-23T18:33:21.467Z,-23.91
2022-12-23T18:36:26.196Z,-23.81
2022-12-23T18:39:29.551Z,-23.73
2022-12-23T18:42:32.858Z,-23.60
2022-12-23T18:45:54.568Z,-24.07
2022-12-23T18:48:58.000Z,-24.31
2022-12-23T18:52:07.908Z,-24.59
2022-12-23T18:55:13.034Z,-24.72
2022-12-23T18:58:18.502Z,-24.89
2022-12-23T19:01:21.755Z,-24.87
2022-12-23T19:04:24.617Z,-24.94
2022-12-23T19:07:27.432Z,-25.15
2022-12-23T19:10:50.911Z,-25.21
2022-12-23T19:13:54.091Z,-25.28
2022-12-23T19:17:00.381Z,-25.19
2022-12-23T19:20:03.951Z,-24.86
2022-12-23T19:23:07.610Z,-24.63
2022-12-23T19:26:12.739Z,-24.62
2022-12-23T19:29:16.327Z,-24.42
2022-12-23T19:32:19.324Z,-24.30
2022-12-23T19:35:22.142Z,-24.39
2022-12-23T19:38:26.810Z,-24.27
2022-12-23T19:41:30.979Z,-24.07
2022-12-23T19:44:34.787Z,-23.95
2022-12-23T19:47:58.555Z,-23.80
2022-12-23T19:51:07.037Z,-23.75
2022-12-23T19:54:10.472Z,-23.60
2022-12-23T19:57:13.807Z,-23.62
2022-12-23T20:00:17.496Z,-23.85
2022-12-23T20:03:21.084Z,-24.06
2022-12-23T20:06:31.792Z,-24.15
2022-12-23T20:09:34.875Z,-24.25
2022-12-23T20:12:38.247Z,-24.24
2022-12-23T20:16:00.462Z,-24.03
2022-12-23T20:19:22.039Z,-24.02
2022-12-23T20:22:24.904Z,-24.06
2022-12-23T20:25:28.296Z,-24.15
2022-12-23T20:28:32.407Z,-24.40
2022-12-23T20:31:38.425Z,-24.49
2022-12-23T20:34:41.477Z,-24.49
2022-12-23T20:38:03.361Z,-24.74
2022-12-23T20:41:09.559Z,-24.95
2022-12-23T20:47:35.903Z,-25.13
2022-12-23T20:50:41.319Z,-25.09
2022-12-23T20:53:45.241Z,-25.18
2022-12-23T20:56:49.263Z,-25.13
2022-12-23T20:59:52.857Z,-25.06
2022-12-23T21:03:33.242Z,-25.06
2022-12-23T21:06:36.866Z,-25.16
2022-12-23T21:09:40.155Z,-25.28
2022-12-23T21:13:01.885Z,-24.91
2022-12-23T21:16:08.612Z,-24.83
2022-12-23T21:19:22.575Z,-24.84
2022-12-23T21:22:27.298Z,-24.76
2022-12-23T21:25:30.202Z,-24.63
2022-12-23T21:28:33.350Z,-24.66
2022-12-23T21:31:38.836Z,-24.67
2022-12-23T21:35:03.264Z,-24.60
2022-12-23T21:38:06.812Z,-24.50
2022-12-23T21:41:13.195Z,-24.72
2022-12-23T21:44:16.575Z,-25.04
2022-12-23T21:47:19.581Z,-25.23
2022-12-23T21:50:41.080Z,-25.09
2022-12-23T21:53:46.806Z,-25.27
2022-12-23T21:57:09.455Z,-25.20
2022-12-23T22:00:13.379Z,-24.93
2022-12-23T22:03:17.660Z,-25.21
2022-12-23T22:06:25.718Z,-25.03
2022-12-23T22:09:29.561Z,-24.91
2022-12-23T22:12:33.186Z,-25.01
2022-12-23T22:15:42.121Z,-24.98
2022-12-23T22:19:03.814Z,-25.02
2022-12-23T22:22:07.469Z,-25.05
2022-12-23T22:25:11.174Z,-25.15
2022-12-23T22:28:15.220Z,-25.21
2022-12-23T22:31:24.601Z,-25.16
2022-12-23T22:34:29.612Z,-24.98
2022-12-23T22:37:33.248Z,-24.96
2022-12-23T22:40:36.428Z,-24.98
2022-12-23T22:43:58.946Z,-25.01
2022-12-23T22:47:21.379Z,-25.17
2022-12-23T22:50:24.920Z,-25.30
2022-12-23T22:53:29.995Z,-25.18
2022-12-23T22:56:33.660Z,-25.09
2022-12-23T22:59:37.776Z,-24.98
2022-12-23T23:02:41.502Z,-24.84
2022-12-23T23:05:45.211Z,-24.85
2022-12-23T23:08:48.868Z,-24.90
2022-12-23T23:11:52.851Z,-24.95
2022-12-23T23:14:56.644Z,-25.19
2022-12-23T23:18:00.607Z,-25.40
2022-12-23T23:21:04.427Z,-25.42
2022-12-23T23:24:09.188Z,-25.48
2022-12-23T23:27:13.364Z,-25.49
2022-12-23T23:30:17.436Z,-25.37
2022-12-23T23:33:20.351Z,-25.42
2022-12-23T23:36:23.668Z,-25.55
2022-12-23T23:39:27.489Z,-25.57
2022-12-23T23:42:31.593Z,-25.46
2022-12-23T23:46:12.120Z,-25.42
2022-12-23T23:49:16.021Z,-25.53
2022-12-23T23:52:18.837Z,-25.49
2022-12-23T23:55:22.174Z,-25.62
2022-12-23T23:58:25.169Z,-25.65
